sensor_id;sensor_type;location;lat;lon;timestamp;temperature;humidity
49052;DHT22;34866;48.670;18.260;2022-11-27T00:00:59;76.80;2227.20
49052;DHT22;34866;48.670;18.260;2022-11-27T00:03:49;76.80;2227.20
49052;DHT22;34866;48.670;18.260;2022-11-27T00:10:20;76.80;2227.20
49052;DHT22;34866;48.670;18.260;2022-11-27T00:12:49;52.10;2227.20
49052;DHT22;34866;48.670;18.260;2022-11-27T00:15:35;52.10;2227.20
49052;DHT22;34866;48.670;18.260;2022-11-27T00:18:18;52.10;2227.20
49052;DHT22;34866;48.670;18.260;2022-11-27T00:21:12;52.00;2227.20
49052;DHT22;34866;48.670;18.260;2022-11-27T00:24:33;76.80;2227.20
49052;DHT22;34866;48.670;18.260;2022-11-27T00:27:29;52.10;2227.20
49052;DHT22;34866;48.670;18.260;2022-11-27T00:30:20;52.10;2227.20
49052;DHT22;34866;48.670;18.260;2022-11-27T00:33:21;52.00;2227.20
49052;DHT22;34866;48.670;18.260;2022-11-27T00:36:27;51.90;2227.20
49052;DHT22;34866;48.670;18.260;2022-11-27T00:50:37;52.00;2227.20
49052;DHT22;34866;48.670;18.260;2022-11-27T00:53:38;52.10;2227.20
49052;DHT22;34866;48.670;18.260;2022-11-27T00:56:33;52.00;2227.20
49052;DHT22;34866;48.670;18.260;2022-11-27T00:59:22;52.00;2227.20
49052;DHT22;34866;48.670;18.260;2022-11-27T01:02:38;51.90;2227.20
49052;DHT22;34866;48.670;18.260;2022-11-27T01:05:40;51.90;2227.20
49052;DHT22;34866;48.670;18.260;2022-11-27T01:08:59;52.10;2227.20
49052;DHT22;34866;48.670;18.260;2022-11-27T01:12:47;52.10;2227.20
49052;DHT22;34866;48.670;18.260;2022-11-27T01:15:18;76.80;2227.20
49052;DHT22;34866;48.670;18.260;2022-11-27T01:17:47;76.90;2227.20
49052;DHT22;34866;48.670;18.260;2022-11-27T01:20:38;76.80;2227.20
49052;DHT22;34866;48.670;18.260;2022-11-27T01:23:39;76.80;2227.20
49052;DHT22;34866;48.670;18.260;2022-11-27T01:26:28;52.10;2227.20
49052;DHT22;34866;48.670;18.260;2022-11-27T01:29:20;52.10;2227.20
49052;DHT22;34866;48.670;18.260;2022-11-27T01:32:06;51.80;2227.20
49052;DHT22;34866;48.670;18.260;2022-11-27T01:35:04;51.70;2227.20
49052;DHT22;34866;48.670;18.260;2022-11-27T01:38:05;51.60;2227.20
49052;DHT22;34866;48.670;18.260;2022-11-27T01:41:15;51.50;2227.20
49052;DHT22;34866;48.670;18.260;2022-11-27T01:47:39;51.60;2227.20
49052;DHT22;34866;48.670;18.260;2022-11-27T01:50:33;51.50;2227.20
49052;DHT22;34866;48.670;18.260;2022-11-27T01:53:39;51.80;2227.20
49052;DHT22;34866;48.670;18.260;2022-11-27T01:56:23;51.70;2227.20
49052;DHT22;34866;48.670;18.260;2022-11-27T02:02:19;51.80;2227.20
49052;DHT22;34866;48.670;18.260;2022-11-27T02:05:16;51.80;2227.20
49052;DHT22;34866;48.670;18.260;2022-11-27T02:07:43;52.00;2227.20
49052;DHT22;34866;48.670;18.260;2022-11-27T02:13:54;52.00;2227.20
49052;DHT22;34866;48.670;18.260;2022-11-27T02:29:17;51.90;2227.20
49052;DHT22;34866;48.670;18.260;2022-11-27T02:32:31;52.00;2227.20
49052;DHT22;34866;48.670;18.260;2022-11-27T02:36:08;51.90;2227.20
49052;DHT22;34866;48.670;18.260;2022-11-27T02:38:49;51.70;2227.20
49052;DHT22;34866;48.670;18.260;2022-11-27T02:41:49;51.70;2227.20
49052;DHT22;34866;48.670;18.260;2022-11-27T02:44:41;51.80;2227.20
49052;DHT22;34866;48.670;18.260;2022-11-27T02:48:05;51.70;2227.20
49052;DHT22;34866;48.670;18.260;2022-11-27T02:54:30;51.40;2227.20
49052;DHT22;34866;48.670;18.260;2022-11-27T02:57:59;26.50;2201.60
49052;DHT22;34866;48.670;18.260;2022-11-27T03:01:04;26.50;2201.60
49052;DHT22;34866;48.670;18.260;2022-11-27T03:04:26;51.20;2227.20
49052;DHT22;34866;48.670;18.260;2022-11-27T03:08:17;51.40;2227.20
49052;DHT22;34866;48.670;18.260;2022-11-27T03:11:10;26.50;2201.60
49052;DHT22;34866;48.670;18.260;2022-11-27T03:13:46;51.20;2227.20
49052;DHT22;34866;48.670;18.260;2022-11-27T03:16:54;26.40;2201.60
49052;DHT22;34866;48.670;18.260;2022-11-27T03:20:04;26.50;2201.60
49052;DHT22;34866;48.670;18.260;2022-11-27T03:23:12;26.50;2201.60
49052;DHT22;34866;48.670;18.260;2022-11-27T03:25:41;51.20;2227.20
49052;DHT22;34866;48.670;18.260;2022-11-27T03:29:04;26.50;2201.60
49052;DHT22;34866;48.670;18.260;2022-11-27T03:32:20;26.50;2201.60
49052;DHT22;34866;48.670;18.260;2022-11-27T03:35:12;26.30;2201.60
49052;DHT22;34866;48.670;18.260;2022-11-27T03:38:42;26.30;2201.60
49052;DHT22;34866;48.670;18.260;2022-11-27T03:44:44;26.40;2201.60
49052;DHT22;34866;48.670;18.260;2022-11-27T04:01:02;26.40;2201.60
49052;DHT22;34866;48.670;18.260;2022-11-27T04:03:33;26.50;2201.60
49052;DHT22;34866;48.670;18.260;2022-11-27T04:06:21;51.20;2227.20
49052;DHT22;34866;48.670;18.260;2022-11-27T04:09:08;26.50;2201.60
49052;DHT22;34866;48.670;18.260;2022-11-27T04:12:14;26.50;2201.60
49052;DHT22;34866;48.670;18.260;2022-11-27T04:15:00;26.50;2201.60
49052;DHT22;34866;48.670;18.260;2022-11-27T04:18:07;51.20;2227.20
49052;DHT22;34866;48.670;18.260;2022-11-27T04:20:58;51.20;2227.20
49052;DHT22;34866;48.670;18.260;2022-11-27T04:23:52;26.50;2201.60
49052;DHT22;34866;48.670;18.260;2022-11-27T04:26:44;26.40;2201.60
49052;DHT22;34866;48.670;18.260;2022-11-27T04:30:03;26.50;2201.60
49052;DHT22;34866;48.670;18.260;2022-11-27T04:32:44;26.50;2201.60
49052;DHT22;34866;48.670;18.260;2022-11-27T04:35:48;26.50;2201.60
49052;DHT22;34866;48.670;18.260;2022-11-27T04:38:14;26.40;2201.60
49052;DHT22;34866;48.670;18.260;2022-11-27T04:49:27;26.30;2201.60
49052;DHT22;34866;48.670;18.260;2022-11-27T04:52:11;26.40;2201.60
49052;DHT22;34866;48.670;18.260;2022-11-27T04:55:16;26.30;2201.60
49052;DHT22;34866;48.670;18.260;2022-11-27T04:58:05;26.30;2201.60
49052;DHT22;34866;48.670;18.260;2022-11-27T05:00:34;26.20;2201.60
49052;DHT22;34866;48.670;18.260;2022-11-27T05:03:21;26.20;2201.60
49052;DHT22;34866;48.670;18.260;2022-11-27T05:06:07;26.00;2201.60
49052;DHT22;34866;48.670;18.260;2022-11-27T05:09:07;25.90;2201.60
49052;DHT22;34866;48.670;18.260;2022-11-27T05:12:16;25.90;2201.60
49052;DHT22;34866;48.670;18.260;2022-11-27T05:15:11;25.70;2201.60
49052;DHT22;34866;48.670;18.260;2022-11-27T05:17:56;25.60;2201.60
49052;DHT22;34866;48.670;18.260;2022-11-27T05:20:46;0.90;2201.60
49052;DHT22;34866;48.670;18.260;2022-11-27T05:23:35;0.80;2201.60
49052;DHT22;34866;48.670;18.260;2022-11-27T05:26:01;25.60;2201.60
49052;DHT22;34866;48.670;18.260;2022-11-27T05:28:30;0.90;2201.60
49052;DHT22;34866;48.670;18.260;2022-11-27T05:30:57;25.90;2201.60
49052;DHT22;34866;48.670;18.260;2022-11-27T05:34:04;25.80;2201.60
49052;DHT22;34866;48.670;18.260;2022-11-27T05:39:33;0.90;2201.60
49052;DHT22;34866;48.670;18.260;2022-11-27T05:41:59;0.90;2201.60
49052;DHT22;34866;48.670;18.260;2022-11-27T05:44:25;25.60;2201.60
49052;DHT22;34866;48.670;18.260;2022-11-27T05:46:57;25.70;2201.60
49052;DHT22;34866;48.670;18.260;2022-11-27T05:49:39;25.70;2201.60
49052;DHT22;34866;48.670;18.260;2022-11-27T05:52:10;0.70;2201.60
49052;DHT22;34866;48.670;18.260;2022-11-27T05:54:38;0.70;2201.60
49052;DHT22;34866;48.670;18.260;2022-11-27T05:57:11;0.90;2201.60
49052;DHT22;34866;48.670;18.260;2022-11-27T06:00:02;0.80;2201.60
49052;DHT22;34866;48.670;18.260;2022-11-27T06:02:31;0.70;2201.60
49052;DHT22;34866;48.670;18.260;2022-11-27T06:05:02;0.60;2201.60
49052;DHT22;34866;48.670;18.260;2022-11-27T06:07:31;0.50;2201.60
49052;DHT22;34866;48.670;18.260;2022-11-27T06:09:59;0.40;2201.60
49052;DHT22;34866;48.670;18.260;2022-11-27T06:13:01;0.40;2201.60
49052;DHT22;34866;48.670;18.260;2022-11-27T06:16:18;0.40;2201.60
49052;DHT22;34866;48.670;18.260;2022-11-27T06:18:58;0.30;2201.60
49052;DHT22;34866;48.670;18.260;2022-11-27T06:21:35;0.30;2201.60
49052;DHT22;34866;48.670;18.260;2022-11-27T06:24:21;0.30;2201.60
49052;DHT22;34866;48.670;18.260;2022-11-27T06:27:03;0.40;2201.60
49052;DHT22;34866;48.670;18.260;2022-11-27T06:30:05;0.50;2201.60
49052;DHT22;34866;48.670;18.260;2022-11-27T06:32:33;0.50;2201.60
49052;DHT22;34866;48.670;18.260;2022-11-27T06:35:06;0.40;2201.60
49052;DHT22;34866;48.670;18.260;2022-11-27T06:41:14;0.10;2201.60
49052;DHT22;34866;48.670;18.260;2022-11-27T06:44:00;0.00;2201.60
49052;DHT22;34866;48.670;18.260;2022-11-27T06:46:27;0.10;2201.60
49052;DHT22;34866;48.670;18.260;2022-11-27T06:48:53;0.10;2201.60
49052;DHT22;34866;48.670;18.260;2022-11-27T06:51:24;0.10;2201.60
49052;DHT22;34866;48.670;18.260;2022-11-27T06:53:59;0.20;2201.60
49052;DHT22;34866;48.670;18.260;2022-11-27T06:56:51;0.70;2201.60
49052;DHT22;34866;48.670;18.260;2022-11-27T06:59:17;0.70;2201.60
49052;DHT22;34866;48.670;18.260;2022-11-27T07:01:44;0.50;2201.60
49052;DHT22;34866;48.670;18.260;2022-11-27T07:04:31;0.40;2201.60
49052;DHT22;34866;48.670;18.260;2022-11-27T07:07:00;0.40;2201.60
49052;DHT22;34866;48.670;18.260;2022-11-27T07:09:32;0.50;2201.60
49052;DHT22;34866;48.670;18.260;2022-11-27T07:11:57;0.50;2201.60
49052;DHT22;34866;48.670;18.260;2022-11-27T07:14:23;0.70;2201.60
49052;DHT22;34866;48.670;18.260;2022-11-27T07:16:49;0.80;2201.60
49052;DHT22;34866;48.670;18.260;2022-11-27T07:19:19;0.70;2201.60
49052;DHT22;34866;48.670;18.260;2022-11-27T07:21:45;0.70;2201.60
49052;DHT22;34866;48.670;18.260;2022-11-27T07:24:14;0.60;2201.60
49052;DHT22;34866;48.670;18.260;2022-11-27T07:26:44;0.70;2201.60
49052;DHT22;34866;48.670;18.260;2022-11-27T07:29:32;0.90;2201.60
49052;DHT22;34866;48.670;18.260;2022-11-27T07:31:57;25.60;2201.60
49052;DHT22;34866;48.670;18.260;2022-11-27T07:34:37;25.80;2201.60
49052;DHT22;34866;48.670;18.260;2022-11-27T07:37:02;26.00;2201.60
49052;DHT22;34866;48.670;18.260;2022-11-27T07:39:29;26.20;2201.60
49052;DHT22;34866;48.670;18.260;2022-11-27T07:42:03;26.40;2201.60
49052;DHT22;34866;48.670;18.260;2022-11-27T07:44:40;51.20;2227.20
49052;DHT22;34866;48.670;18.260;2022-11-27T07:47:06;51.50;2227.20
49052;DHT22;34866;48.670;18.260;2022-11-27T07:49:38;51.70;2227.20
49052;DHT22;34866;48.670;18.260;2022-11-27T07:52:07;51.80;2227.20
49052;DHT22;34866;48.670;18.260;2022-11-27T07:54:39;51.90;2227.20
49052;DHT22;34866;48.670;18.260;2022-11-27T07:57:27;76.80;2227.20
49052;DHT22;34866;48.670;18.260;2022-11-27T07:59:53;76.90;2227.20
49052;DHT22;34866;48.670;18.260;2022-11-27T08:02:41;77.00;2227.20
49052;DHT22;34866;48.670;18.260;2022-11-27T08:05:09;76.80;2227.20
49052;DHT22;34866;48.670;18.260;2022-11-27T08:07:35;77.00;2227.20
49052;DHT22;34866;48.670;18.260;2022-11-27T08:10:04;77.20;2227.20
49052;DHT22;34866;48.670;18.260;2022-11-27T08:12:30;77.40;2227.20
49052;DHT22;34866;48.670;18.260;2022-11-27T08:14:56;77.40;2227.20
49052;DHT22;34866;48.670;18.260;2022-11-27T08:17:25;77.50;2227.20
49052;DHT22;34866;48.670;18.260;2022-11-27T08:19:53;77.50;2227.20
49052;DHT22;34866;48.670;18.260;2022-11-27T08:22:22;77.50;2227.20
49052;DHT22;34866;48.670;18.260;2022-11-27T08:24:50;77.70;2227.20
49052;DHT22;34866;48.670;18.260;2022-11-27T08:27:17;102.50;2227.20
49052;DHT22;34866;48.670;18.260;2022-11-27T08:29:51;102.60;2227.20
49052;DHT22;34866;48.670;18.260;2022-11-27T08:32:17;102.90;2227.20
49052;DHT22;34866;48.670;18.260;2022-11-27T08:34:43;103.00;2227.20
49052;DHT22;34866;48.670;18.260;2022-11-27T08:37:10;103.10;2227.20
49052;DHT22;34866;48.670;18.260;2022-11-27T08:39:35;102.90;2227.20
49052;DHT22;34866;48.670;18.260;2022-11-27T08:42:01;103.30;2227.20
49052;DHT22;34866;48.670;18.260;2022-11-27T08:44:42;102.90;2227.20
49052;DHT22;34866;48.670;18.260;2022-11-27T08:47:11;128.00;2252.80
49052;DHT22;34866;48.670;18.260;2022-11-27T08:49:39;128.20;2252.80
49052;DHT22;34866;48.670;18.260;2022-11-27T08:52:11;128.40;2252.80
49052;DHT22;34866;48.670;18.260;2022-11-27T08:54:37;128.50;2252.80
49052;DHT22;34866;48.670;18.260;2022-11-27T08:57:09;128.60;2252.80
49052;DHT22;34866;48.670;18.260;2022-11-27T08:59:44;128.80;2252.80
49052;DHT22;34866;48.670;18.260;2022-11-27T09:02:19;153.60;2252.80
49052;DHT22;34866;48.670;18.260;2022-11-27T09:04:50;153.70;2252.80
49052;DHT22;34866;48.670;18.260;2022-11-27T09:07:26;153.70;2252.80
49052;DHT22;34866;48.670;18.260;2022-11-27T09:09:55;153.80;2252.80
49052;DHT22;34866;48.670;18.260;2022-11-27T09:12:24;153.90;2252.80
49052;DHT22;34866;48.670;18.260;2022-11-27T09:14:55;153.90;2252.80
49052;DHT22;34866;48.670;18.260;2022-11-27T09:17:27;153.90;2252.80
49052;DHT22;34866;48.670;18.260;2022-11-27T09:20:00;153.60;2252.80
49052;DHT22;34866;48.670;18.260;2022-11-27T09:22:26;128.90;2252.80
49052;DHT22;34866;48.670;18.260;2022-11-27T09:24:53;128.70;2252.80
49052;DHT22;34866;48.670;18.260;2022-11-27T09:27:23;128.70;2252.80
49052;DHT22;34866;48.670;18.260;2022-11-27T09:29:52;128.80;2252.80
49052;DHT22;34866;48.670;18.260;2022-11-27T09:32:22;128.90;2252.80
49052;DHT22;34866;48.670;18.260;2022-11-27T09:34:50;128.90;2252.80
49052;DHT22;34866;48.670;18.260;2022-11-27T09:37:16;153.60;2252.80
49052;DHT22;34866;48.670;18.260;2022-11-27T09:39:41;153.80;2150.40
49052;DHT22;34866;48.670;18.260;2022-11-27T09:42:20;154.00;2252.80
49052;DHT22;34866;48.670;18.260;2022-11-27T09:45:13;154.20;2252.80
49052;DHT22;34866;48.670;18.260;2022-11-27T09:47:43;154.40;2252.80
49052;DHT22;34866;48.670;18.260;2022-11-27T09:50:23;179.40;2252.80
49052;DHT22;34866;48.670;18.260;2022-11-27T09:56:15;256.30;1536.00
49052;DHT22;34866;48.670;18.260;2022-11-27T09:58:43;230.60;2252.80
49052;DHT22;34866;48.670;18.260;2022-11-27T10:01:40;282.10;384.00
49052;DHT22;34866;48.670;18.260;2022-11-27T10:04:09;358.40;128.00
49052;DHT22;34866;48.670;18.260;2022-11-27T10:15:14;461.50;128.00
49052;DHT22;34866;48.670;18.260;2022-11-27T10:20:57;333.00;281.60
49052;DHT22;34866;48.670;18.260;2022-11-27T10:23:47;282.30;6528.00
49052;DHT22;34866;48.670;18.260;2022-11-27T10:26:19;281.60;6528.00
49052;DHT22;34866;48.670;18.260;2022-11-27T10:32:03;358.90;384.00
49052;DHT22;34866;48.670;18.260;2022-11-27T10:34:40;332.90;435.20
49052;DHT22;34866;48.670;18.260;2022-11-27T10:43:12;461.20;128.00
49052;DHT22;34866;48.670;18.260;2022-11-27T10:48:51;358.70;128.00
49052;DHT22;34866;48.670;18.260;2022-11-27T10:51:23;307.50;128.00
49052;DHT22;34866;48.670;18.260;2022-11-27T10:53:52;435.40;128.00
49052;DHT22;34866;48.670;18.260;2022-11-27T10:58:58;333.70;128.00
49052;DHT22;34866;48.670;18.260;2022-11-27T11:01:27;308.00;128.00
49052;DHT22;34866;48.670;18.260;2022-11-27T11:04:11;384.10;128.00
49052;DHT22;34866;48.670;18.260;2022-11-27T11:06:47;435.40;128.00
49052;DHT22;34866;48.670;18.260;2022-11-27T11:09:33;512.30;128.00
49052;DHT22;34866;48.670;18.260;2022-11-27T11:12:12;512.50;128.00
49052;DHT22;34866;48.670;18.260;2022-11-27T11:14:55;538.10;128.00
49052;DHT22;34866;48.670;18.260;2022-11-27T11:17:33;538.20;128.00
49052;DHT22;34866;48.670;18.260;2022-11-27T11:19:59;538.40;128.00
49052;DHT22;34866;48.670;18.260;2022-11-27T11:22:27;486.50;128.00
49052;DHT22;34866;48.670;18.260;2022-11-27T11:24:56;461.20;128.00
49052;DHT22;34866;48.670;18.260;2022-11-27T11:27:31;435.60;128.00
49052;DHT22;34866;48.670;18.260;2022-11-27T11:30:33;537.70;128.00
49052;DHT22;34866;48.670;18.260;2022-11-27T11:33:03;563.50;128.00
49052;DHT22;34866;48.670;18.260;2022-11-27T11:35:33;563.40;128.00
49052;DHT22;34866;48.670;18.260;2022-11-27T11:38:26;512.80;128.00
49052;DHT22;34866;48.670;18.260;2022-11-27T11:40:59;486.80;128.00
49052;DHT22;34866;48.670;18.260;2022-11-27T11:43:33;538.50;128.00
49052;DHT22;34866;48.670;18.260;2022-11-27T11:46:21;461.00;128.00
49052;DHT22;34866;48.670;18.260;2022-11-27T11:49:16;538.00;128.00
49052;DHT22;34866;48.670;18.260;2022-11-27T11:58:20;588.80;128.00
49052;DHT22;34866;48.670;18.260;2022-11-27T12:10:19;409.80;128.00
49052;DHT22;34866;48.670;18.260;2022-11-27T12:16:03;410.30;128.00
49052;DHT22;34866;48.670;18.260;2022-11-27T12:30:24;435.40;128.00
49052;DHT22;34866;48.670;18.260;2022-11-27T12:44:59;512.80;128.00
49052;DHT22;34866;48.670;18.260;2022-11-27T12:47:42;487.00;128.00
49052;DHT22;34866;48.670;18.260;2022-11-27T12:53:01;486.90;128.00
49052;DHT22;34866;48.670;18.260;2022-11-27T12:55:34;435.90;128.00
49052;DHT22;34866;48.670;18.260;2022-11-27T12:58:20;308.00;128.00
49052;DHT22;34866;48.670;18.260;2022-11-27T13:00:48;282.00;6528.00
49052;DHT22;34866;48.670;18.260;2022-11-27T13:03:44;333.40;128.00
49052;DHT22;34866;48.670;18.260;2022-11-27T13:06:13;282.40;6528.00
49052;DHT22;34866;48.670;18.260;2022-11-27T13:09:09;384.50;128.00
49052;DHT22;34866;48.670;18.260;2022-11-27T13:11:38;384.70;128.00
49052;DHT22;34866;48.670;18.260;2022-11-27T13:14:11;384.60;128.00
49052;DHT22;34866;48.670;18.260;2022-11-27T13:16:50;384.80;128.00
49052;DHT22;34866;48.670;18.260;2022-11-27T13:19:36;358.70;128.00
49052;DHT22;34866;48.670;18.260;2022-11-27T13:22:08;358.40;128.00
49052;DHT22;34866;48.670;18.260;2022-11-27T13:24:55;333.20;128.00
49052;DHT22;34866;48.670;18.260;2022-11-27T13:27:27;307.40;128.00
49052;DHT22;34866;48.670;18.260;2022-11-27T13:30:05;281.90;6528.00
49052;DHT22;34866;48.670;18.260;2022-11-27T13:32:53;282.20;332.80
49052;DHT22;34866;48.670;18.260;2022-11-27T13:35:37;256.60;409.60
49052;DHT22;34866;48.670;18.260;2022-11-27T13:40:41;256.30;6502.40
49052;DHT22;34866;48.670;18.260;2022-11-27T13:43:27;230.80;6502.40
49052;DHT22;34866;48.670;18.260;2022-11-27T13:46:21;230.50;6502.40
49052;DHT22;34866;48.670;18.260;2022-11-27T13:48:58;205.70;6502.40
49052;DHT22;34866;48.670;18.260;2022-11-27T13:51:49;205.70;6502.40
49052;DHT22;34866;48.670;18.260;2022-11-27T13:54:18;205.10;1459.20
49052;DHT22;34866;48.670;18.260;2022-11-27T13:57:07;204.90;2252.80
49052;DHT22;34866;48.670;18.260;2022-11-27T13:59:38;204.80;2252.80
49052;DHT22;34866;48.670;18.260;2022-11-27T14:02:09;204.90;2252.80
49052;DHT22;34866;48.670;18.260;2022-11-27T14:04:48;179.80;2252.80
49052;DHT22;34866;48.670;18.260;2022-11-27T14:07:14;179.50;2252.80
49052;DHT22;34866;48.670;18.260;2022-11-27T14:09:44;179.30;2252.80
49052;DHT22;34866;48.670;18.260;2022-11-27T14:12:15;154.40;2252.80
49052;DHT22;34866;48.670;18.260;2022-11-27T14:15:08;154.20;2252.80
49052;DHT22;34866;48.670;18.260;2022-11-27T14:17:53;153.90;2252.80
49052;DHT22;34866;48.670;18.260;2022-11-27T14:20:31;153.90;2252.80
49052;DHT22;34866;48.670;18.260;2022-11-27T14:22:58;153.70;2252.80
49052;DHT22;34866;48.670;18.260;2022-11-27T14:25:30;128.90;2252.80
49052;DHT22;34866;48.670;18.260;2022-11-27T14:28:21;128.70;2252.80
49052;DHT22;34866;48.670;18.260;2022-11-27T14:30:58;128.70;2252.80
49052;DHT22;34866;48.670;18.260;2022-11-27T14:33:33;153.90;2252.80
49052;DHT22;34866;48.670;18.260;2022-11-27T14:36:04;128.80;2252.80
49052;DHT22;34866;48.670;18.260;2022-11-27T14:38:33;128.60;2252.80
49052;DHT22;34866;48.670;18.260;2022-11-27T14:41:17;128.40;2252.80
49052;DHT22;34866;48.670;18.260;2022-11-27T14:43:47;128.40;2252.80
49052;DHT22;34866;48.670;18.260;2022-11-27T14:46:20;128.40;2252.80
49052;DHT22;34866;48.670;18.260;2022-11-27T14:48:48;128.10;2176.00
49052;DHT22;34866;48.670;18.260;2022-11-27T14:51:17;103.30;2227.20
49052;DHT22;34866;48.670;18.260;2022-11-27T14:53:46;103.20;2227.20
49052;DHT22;34866;48.670;18.260;2022-11-27T14:56:12;103.10;2227.20
49052;DHT22;34866;48.670;18.260;2022-11-27T14:58:51;128.00;2252.80
49052;DHT22;34866;48.670;18.260;2022-11-27T15:03:59;103.00;2227.20
49052;DHT22;34866;48.670;18.260;2022-11-27T15:06:30;102.80;2227.20
49052;DHT22;34866;48.670;18.260;2022-11-27T15:08:58;102.80;2227.20
49052;DHT22;34866;48.670;18.260;2022-11-27T15:11:24;103.00;2227.20
49052;DHT22;34866;48.670;18.260;2022-11-27T15:13:54;102.80;2227.20
49052;DHT22;34866;48.670;18.260;2022-11-27T15:16:24;102.80;2227.20
49052;DHT22;34866;48.670;18.260;2022-11-27T15:18:54;102.90;2227.20
49052;DHT22;34866;48.670;18.260;2022-11-27T15:21:22;102.80;2227.20
49052;DHT22;34866;48.670;18.260;2022-11-27T15:23:57;102.70;2227.20
49052;DHT22;34866;48.670;18.260;2022-11-27T15:26:37;102.80;2227.20
49052;DHT22;34866;48.670;18.260;2022-11-27T15:29:33;102.80;2227.20
49052;DHT22;34866;48.670;18.260;2022-11-27T15:32:01;102.80;2227.20
49052;DHT22;34866;48.670;18.260;2022-11-27T15:34:31;102.90;2227.20
49052;DHT22;34866;48.670;18.260;2022-11-27T15:37:02;102.90;2227.20
49052;DHT22;34866;48.670;18.260;2022-11-27T15:39:51;102.90;2227.20
49052;DHT22;34866;48.670;18.260;2022-11-27T15:42:17;102.80;2227.20
49052;DHT22;34866;48.670;18.260;2022-11-27T15:44:44;102.80;2227.20
49052;DHT22;34866;48.670;18.260;2022-11-27T15:47:38;102.80;2227.20
49052;DHT22;34866;48.670;18.260;2022-11-27T15:50:05;102.70;2227.20
49052;DHT22;34866;48.670;18.260;2022-11-27T15:52:31;102.70;2227.20
49052;DHT22;34866;48.670;18.260;2022-11-27T15:54:57;102.70;2227.20
49052;DHT22;34866;48.670;18.260;2022-11-27T15:57:23;102.70;2227.20
49052;DHT22;34866;48.670;18.260;2022-11-27T15:59:53;102.70;2227.20
49052;DHT22;34866;48.670;18.260;2022-11-27T16:02:19;102.70;2227.20
49052;DHT22;34866;48.670;18.260;2022-11-27T16:04:46;102.60;2227.20
49052;DHT22;34866;48.670;18.260;2022-11-27T16:07:12;102.70;2227.20
49052;DHT22;34866;48.670;18.260;2022-11-27T16:09:37;102.60;2227.20
49052;DHT22;34866;48.670;18.260;2022-11-27T16:12:04;102.70;2227.20
49052;DHT22;34866;48.670;18.260;2022-11-27T16:14:33;102.50;2227.20
49052;DHT22;34866;48.670;18.260;2022-11-27T16:16:59;102.60;2227.20
49052;DHT22;34866;48.670;18.260;2022-11-27T16:19:26;102.60;2227.20
49052;DHT22;34866;48.670;18.260;2022-11-27T16:21:51;102.60;2227.20
49052;DHT22;34866;48.670;18.260;2022-11-27T16:24:20;102.60;2227.20
49052;DHT22;34866;48.670;18.260;2022-11-27T16:26:46;102.60;2227.20
49052;DHT22;34866;48.670;18.260;2022-11-27T16:29:12;102.50;2227.20
49052;DHT22;34866;48.670;18.260;2022-11-27T16:31:38;102.50;2227.20
49052;DHT22;34866;48.670;18.260;2022-11-27T16:34:04;102.60;2227.20
49052;DHT22;34866;48.670;18.260;2022-11-27T16:36:31;102.50;2227.20
49052;DHT22;34866;48.670;18.260;2022-11-27T16:39:03;102.50;2227.20
49052;DHT22;34866;48.670;18.260;2022-11-27T16:41:28;102.50;2227.20
49052;DHT22;34866;48.670;18.260;2022-11-27T16:43:57;102.50;2227.20
49052;DHT22;34866;48.670;18.260;2022-11-27T16:46:25;102.50;2227.20
49052;DHT22;34866;48.670;18.260;2022-11-27T16:48:52;102.40;2227.20
49052;DHT22;34866;48.670;18.260;2022-11-27T16:51:21;102.40;2227.20
49052;DHT22;34866;48.670;18.260;2022-11-27T16:53:50;77.70;2227.20
49052;DHT22;34866;48.670;18.260;2022-11-27T16:56:20;77.70;2227.20
49052;DHT22;34866;48.670;18.260;2022-11-27T16:58:47;77.70;2227.20
49052;DHT22;34866;48.670;18.260;2022-11-27T17:01:25;102.40;2227.20
49052;DHT22;34866;48.670;18.260;2022-11-27T17:03:58;77.70;2227.20
49052;DHT22;34866;48.670;18.260;2022-11-27T17:06:29;77.60;2227.20
49052;DHT22;34866;48.670;18.260;2022-11-27T17:08:58;77.70;2227.20
49052;DHT22;34866;48.670;18.260;2022-11-27T17:11:28;77.60;2227.20
49052;DHT22;34866;48.670;18.260;2022-11-27T17:13:57;77.60;2227.20
49052;DHT22;34866;48.670;18.260;2022-11-27T17:16:23;77.70;2227.20
49052;DHT22;34866;48.670;18.260;2022-11-27T17:18:55;102.40;2227.20
49052;DHT22;34866;48.670;18.260;2022-11-27T17:21:40;77.70;2227.20
49052;DHT22;34866;48.670;18.260;2022-11-27T17:24:10;102.40;2227.20
49052;DHT22;34866;48.670;18.260;2022-11-27T17:26:39;77.70;2227.20
49052;DHT22;34866;48.670;18.260;2022-11-27T17:29:08;102.40;2227.20
49052;DHT22;34866;48.670;18.260;2022-11-27T17:31:34;77.70;2227.20
49052;DHT22;34866;48.670;18.260;2022-11-27T17:34:02;77.70;2227.20
49052;DHT22;34866;48.670;18.260;2022-11-27T17:36:29;102.40;2227.20
49052;DHT22;34866;48.670;18.260;2022-11-27T17:39:00;77.70;2227.20
49052;DHT22;34866;48.670;18.260;2022-11-27T17:41:26;102.40;2227.20
49052;DHT22;34866;48.670;18.260;2022-11-27T17:43:52;102.40;2227.20
49052;DHT22;34866;48.670;18.260;2022-11-27T17:46:23;77.60;2227.20
49052;DHT22;34866;48.670;18.260;2022-11-27T17:48:50;77.70;2227.20
49052;DHT22;34866;48.670;18.260;2022-11-27T17:51:17;77.60;2227.20
49052;DHT22;34866;48.670;18.260;2022-11-27T17:53:43;77.60;2227.20
49052;DHT22;34866;48.670;18.260;2022-11-27T17:56:11;77.70;2227.20
49052;DHT22;34866;48.670;18.260;2022-11-27T17:58:38;77.70;2227.20
49052;DHT22;34866;48.670;18.260;2022-11-27T18:01:07;77.70;2227.20
49052;DHT22;34866;48.670;18.260;2022-11-27T18:03:38;77.70;2227.20
49052;DHT22;34866;48.670;18.260;2022-11-27T18:06:06;102.40;2227.20
49052;DHT22;34866;48.670;18.260;2022-11-27T18:08:33;102.40;2227.20
49052;DHT22;34866;48.670;18.260;2022-11-27T18:11:07;102.50;2227.20
49052;DHT22;34866;48.670;18.260;2022-11-27T18:13:33;102.40;2227.20
49052;DHT22;34866;48.670;18.260;2022-11-27T18:16:07;102.40;2227.20
49052;DHT22;34866;48.670;18.260;2022-11-27T18:18:37;102.40;2227.20
49052;DHT22;34866;48.670;18.260;2022-11-27T18:21:07;102.40;2227.20
49052;DHT22;34866;48.670;18.260;2022-11-27T18:23:41;102.50;2227.20
49052;DHT22;34866;48.670;18.260;2022-11-27T18:26:13;77.70;2227.20
49052;DHT22;34866;48.670;18.260;2022-11-27T18:28:39;102.40;2227.20